Dixie Valley, Nevada
Current Conditions -  °F | °C
As of 10:56 AM on Thursday 30 Oct 2014 (Local Time) from KNFL Reporting Station
Overcast Overcast  
Wind Chill: 60°   Ceiling: 24000
Heat Index: 60°   Visibility: 10mi
Dew Point: 30°   Wind: 5mph
Humidity: 32%   Direction: 40°NE
Pressure: 30.12"   Gusts: NA
Location:  39.5809°N, 118.333°W
Report Text: KNFL 301756Z 04004KT 10SM SCT200 BKN240 OVC300 16/M01 A3012 RMK AO2 SLP166 T01561011 10156 20006 58003
Loading
Personal Weather Stations






























Interactive Weather Map
Tropical Storm Tracking
New forecast layout! Learn more

10-Day Weather Forecast

Advertisements
Track Severe Weather on mobile